Time;durP1;ratioP1;P1;durP2;ratioP2;P2;SDS_P1;SDS_P2;PMS_P1;PMS_P2;Temp;Humidity;BMP_temperature;BMP_pressure;BME280_temperature;BME280_humidity;BME280_pressure;Samples;Min_cycle;Max_cycle;Signal;HPM_P1;HPM_P2
2022/12/05 00:00:14;;;;;;;86.47;30.60;;;;;;;2.46;100.00;100537.88;5068612;28;20028;-69
2022/12/05 00:02:40;;;;;;;80.53;30.40;;;;;;;2.43;100.00;100544.66;5078441;28;20028;-69
2022/12/05 00:05:06;;;;;;;81.03;29.33;;;;;;;2.44;100.00;100554.56;5057284;28;20476;-69
2022/12/05 00:07:31;;;;;;;84.95;29.25;;;;;;;2.47;100.00;100554.06;5038614;28;20096;-69
2022/12/05 00:09:57;;;;;;;74.82;28.55;;;;;;;2.44;100.00;100554.56;5025239;28;20028;-69
2022/12/05 00:12:22;;;;;;;79.78;29.42;;;;;;;2.45;100.00;100552.63;5092149;28;20024;-69
2022/12/05 00:14:48;;;;;;;78.35;30.13;;;;;;;2.45;100.00;100552.63;5062921;28;20025;-69
2022/12/05 00:17:13;;;;;;;77.13;28.67;;;;;;;2.45;100.00;100558.13;5057965;28;20029;-70
2022/12/05 00:19:39;;;;;;;82.90;29.65;;;;;;;2.44;100.00;100554.56;5064060;28;20028;-69
2022/12/05 00:22:04;;;;;;;77.68;28.08;;;;;;;2.43;100.00;100563.88;5038065;28;20059;-69
2022/12/05 00:24:30;;;;;;;72.15;27.77;;;;;;;2.46;100.00;100562.56;5056954;28;20233;-69
2022/12/05 00:26:55;;;;;;;72.53;27.40;;;;;;;2.46;100.00;100565.28;5056608;28;20031;-69
2022/12/05 00:29:20;;;;;;;78.78;28.08;;;;;;;2.46;100.00;100560.63;5053089;28;20059;-69
2022/12/05 00:31:46;;;;;;;80.15;28.60;;;;;;;2.47;100.00;100565.03;5043208;28;20455;-69
2022/12/05 00:34:11;;;;;;;87.93;31.70;;;;;;;2.46;100.00;100565.28;5071741;28;20060;-69
2022/12/05 00:36:37;;;;;;;90.00;31.10;;;;;;;2.46;100.00;100566.13;5056499;28;20056;-69
2022/12/05 00:39:05;;;;;;;91.70;32.67;;;;;;;2.44;100.00;100561.94;5052683;28;20040;-69
2022/12/05 00:41:31;;;;;;;90.40;32.92;;;;;;;2.43;100.00;100572.09;5055280;28;20025;-69
2022/12/05 00:43:58;;;;;;;81.20;28.35;;;;;;;2.42;100.00;100570.44;5026613;28;20087;-69
2022/12/05 00:46:24;;;;;;;77.43;27.42;;;;;;;2.44;100.00;100568.25;5050537;28;20123;-69
2022/12/05 00:48:51;;;;;;;80.95;29.13;;;;;;;2.44;100.00;100565.53;5069050;28;20028;-69
2022/12/05 00:51:27;;;;;;;72.07;27.50;;;;;;;2.46;100.00;100571.59;5071952;28;20119;-69
2022/12/05 00:53:53;;;;;;;80.30;29.42;;;;;;;2.45;100.00;100574.56;5052097;28;20035;-69
2022/12/05 00:56:20;;;;;;;76.50;29.30;;;;;;;2.43;100.00;100577.56;5052466;28;20060;-69
2022/12/05 00:58:46;;;;;;;74.97;28.00;;;;;;;2.44;100.00;100567.44;5033797;28;20558;-69
2022/12/05 01:01:16;;;;;;;75.13;26.42;;;;;;;2.43;100.00;100574.81;5057950;28;20032;-69
2022/12/05 01:03:41;;;;;;;72.25;28.50;;;;;;;2.44;100.00;100573.75;5078130;28;20110;-70
2022/12/05 01:06:07;;;;;;;72.20;27.67;;;;;;;2.48;100.00;100576.88;5061046;28;20034;-69
2022/12/05 01:08:33;;;;;;;75.63;27.20;;;;;;;2.48;100.00;100585.09;5057435;28;20032;-69
2022/12/05 01:10:59;;;;;;;73.80;27.55;;;;;;;2.44;100.00;100587.44;5040530;28;20056;-69
2022/12/05 01:13:25;;;;;;;71.57;27.50;;;;;;;2.45;100.00;100580.06;5047687;28;20108;-69
2022/12/05 01:15:50;;;;;;;66.82;26.50;;;;;;;2.44;100.00;100581.97;5056622;28;20037;-69
2022/12/05 01:18:16;;;;;;;75.68;27.58;;;;;;;2.47;100.00;100583.41;5032667;28;20021;-69
2022/12/05 01:20:42;;;;;;;71.80;28.30;;;;;;;2.48;100.00;100587.84;5043860;28;20071;-69
2022/12/05 01:23:07;;;;;;;75.50;28.90;;;;;;;2.47;100.00;100578.75;5049257;28;20477;-69
2022/12/05 01:25:33;;;;;;;83.45;30.10;;;;;;;2.48;100.00;100585.09;5059331;28;20048;-69
2022/12/05 01:27:59;;;;;;;80.78;29.17;;;;;;;2.47;100.00;100592.44;5060504;28;20028;-69
2022/12/05 01:30:24;;;;;;;72.28;28.30;;;;;;;2.49;100.00;100591.41;5023799;28;20389;-69
2022/12/05 01:32:50;;;;;;;68.80;26.88;;;;;;;2.49;100.00;100596.88;5038245;28;20058;-69
2022/12/05 01:35:15;;;;;;;77.35;28.60;;;;;;;2.49;100.00;100599.63;5042508;28;20044;-69
2022/12/05 01:37:41;;;;;;;77.78;27.70;;;;;;;2.50;100.00;100601.28;5038807;28;20068;-69
2022/12/05 01:40:07;;;;;;;72.80;27.30;;;;;;;2.48;100.00;100601.53;5081385;28;20035;-69
2022/12/05 01:42:32;;;;;;;75.10;28.17;;;;;;;2.50;100.00;100599.38;5080989;28;20036;-69
2022/12/05 01:45:01;;;;;;;82.97;30.23;;;;;;;2.50;100.00;100601.28;5064867;28;20024;-69
2022/12/05 01:47:26;;;;;;;83.95;29.02;;;;;;;2.51;100.00;100619.38;5048116;28;20119;-69
2022/12/05 01:49:53;;;;;;;85.13;29.92;;;;;;;2.49;100.00;100605.09;5077905;28;20056;-69
2022/12/05 01:52:21;;;;;;;87.10;30.27;;;;;;;2.49;100.00;100614.16;5072597;28;20047;-69
2022/12/05 01:54:47;;;;;;;86.30;29.17;;;;;;;2.51;100.00;100611.16;5048814;28;20028;-69
2022/12/05 01:57:12;;;;;;;83.72;29.88;;;;;;;2.49;100.00;100614.16;5063259;28;20537;-69
2022/12/05 01:59:40;;;;;;;82.80;30.63;;;;;;;2.48;100.00;100609.75;5044314;28;20099;-69
2022/12/05 02:02:05;;;;;;;90.85;30.33;;;;;;;2.49;100.00;100602.38;5069966;28;20034;-69
2022/12/05 02:04:32;;;;;;;84.32;28.58;;;;;;;2.51;100.00;100608.41;5062298;28;20037;-69
2022/12/05 02:06:58;;;;;;;82.60;29.60;;;;;;;2.51;100.00;100606.53;5061114;28;20103;-69
2022/12/05 02:09:23;;;;;;;87.32;29.20;;;;;;;2.51;100.00;100611.16;5060767;28;20033;-69
2022/12/05 02:11:53;;;;;;;84.57;27.60;;;;;;;2.51;100.00;100609.28;5056796;28;20024;-70
2022/12/05 02:14:35;;;;;;;91.18;29.00;;;;;;;2.52;100.00;100610.09;5061605;28;20061;-69
2022/12/05 02:17:19;;;;;;;100.97;29.23;;;;;;;2.51;100.00;100612.03;5080211;28;20031;-69
2022/12/05 02:20:00;;;;;;;86.05;29.00;;;;;;;2.51;100.00;100614.75;5080529;28;20484;-69
2022/12/05 02:23:02;;;;;;;89.03;28.50;;;;;;;2.53;100.00;100609.03;5085138;28;20040;-69
2022/12/05 02:25:28;;;;;;;83.57;29.73;;;;;;;2.52;100.00;100607.38;5098179;28;20542;-69
2022/12/05 02:28:22;;;;;;;81.05;28.83;;;;;;;2.52;100.00;100604.63;5098479;28;20055;-69
2022/12/05 02:31:12;;;;;;;81.90;28.20;;;;;;;2.52;100.00;100607.38;5073821;28;20041;-70
2022/12/05 02:33:45;;;;;;;78.93;28.05;;;;;;;2.53;100.00;100614.50;5057047;28;20067;-69
2022/12/05 02:36:34;;;;;;;89.05;27.77;;;;;;;2.54;100.00;100621.69;5033802;28;20047;-69
2022/12/05 02:39:03;;;;;;;82.43;27.55;;;;;;;2.53;100.00;100615.34;5067475;28;20064;-69
2022/12/05 02:41:52;;;;;;;91.45;30.27;;;;;;;2.54;100.00;100616.19;5060135;28;20520;-69
2022/12/05 02:44:29;;;;;;;88.25;27.25;;;;;;;2.55;100.00;100620.59;5047158;28;20028;-69
2022/12/05 02:46:55;;;;;;;80.50;27.27;;;;;;;2.54;100.00;100618.94;5058764;28;20021;-69
2022/12/05 02:49:22;;;;;;;86.50;27.20;;;;;;;2.53;100.00;100620.00;5055699;28;20039;-69
2022/12/05 02:51:51;;;;;;;85.75;29.15;;;;;;;2.52;100.00;100623.81;5058509;28;20025;-69
2022/12/05 02:54:28;;;;;;;91.50;30.58;;;;;;;2.53;100.00;100625.47;5069728;28;20035;-69
2022/12/05 02:56:54;;;;;;;93.32;29.63;;;;;;;2.52;100.00;100621.91;5042609;28;20119;-69
2022/12/05 02:59:19;;;;;;;89.82;30.10;;;;;;;2.55;100.00;100623.34;5057912;28;20103;-69
2022/12/05 03:01:48;;;;;;;88.03;28.50;;;;;;;2.55;100.00;100628.81;5061868;28;20024;-69
2022/12/05 03:04:14;;;;;;;94.45;30.30;;;;;;;2.53;100.00;100631.78;5058251;28;20025;-69
2022/12/05 03:06:44;;;;;;;91.88;30.33;;;;;;;2.53;100.00;100631.78;5031707;28;20031;-69
2022/12/05 03:09:23;;;;;;;89.32;30.45;;;;;;;2.54;100.00;100632.66;5045692;28;20028;-69
2022/12/05 03:12:12;;;;;;;102.95;31.80;;;;;;;2.52;100.00;100626.56;5063099;28;20043;-69
2022/12/05 03:14:48;;;;;;;101.68;30.98;;;;;;;2.51;100.00;100627.63;5060735;28;20422;-69
2022/12/05 03:17:17;;;;;;;106.72;32.35;;;;;;;2.49;100.00;100625.13;5032386;28;20043;-69
2022/12/05 03:19:56;;;;;;;92.85;32.05;;;;;;;2.51;100.00;100622.13;5043771;28;20107;-70
2022/12/05 03:22:37;;;;;;;98.47;33.88;;;;;;;2.47;100.00;100627.25;5072217;28;20086;-69
2022/12/05 03:25:03;;;;;;;96.10;32.33;;;;;;;2.51;100.00;100633.09;5051466;28;20481;-69
2022/12/05 03:27:46;;;;;;;91.18;31.15;;;;;;;2.45;100.00;100632.13;5044673;28;20050;-69
2022/12/05 03:30:13;;;;;;;94.90;31.23;;;;;;;2.49;100.00;100638.00;5064704;28;20033;-69
2022/12/05 03:33:02;;;;;;;101.82;33.17;;;;;;;2.49;100.00;100633.34;5058489;28;20024;-69
2022/12/05 03:35:44;;;;;;;93.53;31.48;;;;;;;2.49;100.00;100638.00;5011773;28;1313970;-69
2022/12/05 03:38:20;;;;;;;83.95;29.90;;;;;;;2.50;100.00;100645.16;5066896;28;20086;-69
2022/12/05 03:41:15;;;;;;;108.05;34.17;;;;;;;2.46;100.00;100642.06;5059920;28;20028;-69
2022/12/05 03:43:55;;;;;;;101.75;32.50;;;;;;;2.47;100.00;100650.03;5060756;28;20039;-69
2022/12/05 03:46:36;;;;;;;93.78;33.60;;;;;;;2.49;100.00;100657.19;5079612;28;20035;-69
2022/12/05 03:49:12;;;;;;;98.03;32.80;;;;;;;2.46;100.00;100653.84;5068179;28;20033;-70
2022/12/05 03:51:41;;;;;;;91.75;31.40;;;;;;;2.45;100.00;100662.28;5077669;28;20458;-69
2022/12/05 03:54:13;;;;;;;89.15;31.17;;;;;;;2.47;100.00;100655.50;5078024;28;20369;-69
2022/12/05 03:56:44;;;;;;;92.50;33.03;;;;;;;2.48;100.00;100653.63;5054996;28;20025;-70
2022/12/05 03:59:18;;;;;;;93.60;29.95;;;;;;;2.49;100.00;100657.19;5078540;28;20115;-70
2022/12/05 04:01:43;;;;;;;86.35;30.52;;;;;;;2.50;100.00;100659.69;5075275;28;20028;-69
2022/12/05 04:04:23;;;;;;;87.35;31.17;;;;;;;2.51;100.00;100663.25;5046470;28;20033;-70
2022/12/05 04:06:49;;;;;;;90.63;31.42;;;;;;;2.50;100.00;100670.66;5054485;28;20086;-69
2022/12/05 04:09:19;;;;;;;88.68;31.10;;;;;;;2.50;100.00;100667.06;5067051;28;20036;-70
2022/12/05 04:11:47;;;;;;;96.18;31.77;;;;;;;2.49;100.00;100665.41;5082068;28;20063;-69
2022/12/05 04:14:16;;;;;;;87.40;30.27;;;;;;;2.49;100.00;100674.47;5059976;28;20028;-69
2022/12/05 04:17:04;;;;;;;87.25;29.38;;;;;;;2.50;100.00;100669.81;5065019;28;20104;-69
2022/12/05 04:22:27;;;;;;;97.10;31.92;;;;;;;2.51;100.00;100671.47;5049973;28;20077;-69
2022/12/05 04:28:09;;;;;;;90.65;30.33;;;;;;;2.51;100.00;100674.22;5045551;28;20039;-70
2022/12/05 04:30:38;;;;;;;78.97;30.17;;;;;;;2.50;100.00;100681.63;5070260;28;20036;-69
2022/12/05 04:33:05;;;;;;;80.75;28.35;;;;;;;2.52;100.00;100674.00;5043173;28;20384;-70
2022/12/05 04:35:39;;;;;;;84.82;31.15;;;;;;;2.52;100.00;100684.13;5077569;28;20413;-69
2022/12/05 04:38:14;;;;;;;76.15;29.63;;;;;;;2.52;100.00;100681.41;5055101;28;20021;-69
2022/12/05 04:40:53;;;;;;;95.28;32.63;;;;;;;2.51;100.00;100682.44;5037697;28;20491;-69
2022/12/05 04:43:19;;;;;;;93.03;32.17;;;;;;;2.49;100.00;100685.44;5036933;28;20083;-69
2022/12/05 04:45:44;;;;;;;82.85;30.80;;;;;;;2.47;100.00;100696.63;5031512;28;20028;-69
2022/12/05 04:48:12;;;;;;;84.35;31.17;;;;;;;2.50;100.00;100689.00;5040934;28;20109;-70
2022/12/05 04:50:37;;;;;;;80.07;28.27;;;;;;;2.50;100.00;100689.84;5041383;28;20037;-69
2022/12/05 04:53:03;;;;;;;75.18;28.60;;;;;;;2.50;100.00;100689.00;5040865;28;20021;-69
2022/12/05 04:55:28;;;;;;;86.13;31.77;;;;;;;2.50;100.00;100703.53;5024250;28;20024;-70
2022/12/05 04:58:07;;;;;;;74.43;29.42;;;;;;;2.50;100.00;100689.00;5057285;28;20413;-69
2022/12/05 05:00:45;;;;;;;77.90;29.27;;;;;;;2.53;100.00;100694.00;5057611;28;20123;-69
2022/12/05 05:03:41;;;;;;;80.85;29.95;;;;;;;2.51;100.00;100696.16;5054358;28;20021;-69
2022/12/05 05:06:07;;;;;;;70.03;27.98;;;;;;;2.52;100.00;100703.31;5030758;28;20678;-69
2022/12/05 05:08:32;;;;;;;72.25;27.67;;;;;;;2.51;100.00;100696.16;5035060;28;20029;-69
2022/12/05 05:11:19;;;;;;;72.55;28.23;;;;;;;2.51;100.00;100698.91;5019859;28;20029;-69
2022/12/05 05:13:44;;;;;;;74.82;28.17;;;;;;;2.52;100.00;100706.06;5034919;28;20374;-70
2022/12/05 05:16:24;;;;;;;84.35;30.92;;;;;;;2.52;100.00;100700.59;5053946;28;20067;-69
2022/12/05 05:18:50;;;;;;;76.90;28.45;;;;;;;2.52;100.00;100706.91;5037114;28;20036;-69
2022/12/05 05:21:22;;;;;;;94.35;32.05;;;;;;;2.51;100.00;100709.84;5054019;28;20087;-69
2022/12/05 05:23:47;;;;;;;81.88;29.77;;;;;;;2.51;100.00;100718.09;5002742;28;21471;-69
2022/12/05 05:26:13;;;;;;;86.63;31.73;;;;;;;2.46;100.00;100719.63;5011305;28;20028;-70
2022/12/05 05:28:38;;;;;;;92.50;32.78;;;;;;;2.44;100.00;100715.47;5052049;28;20033;-69
2022/12/05 05:31:04;;;;;;;96.22;32.83;;;;;;;2.45;100.00;100728.09;5019396;28;20033;-69
2022/12/05 05:33:30;;;;;;;97.35;33.58;;;;;;;2.44;100.00;100723.69;5057306;28;20040;-69
2022/12/05 05:35:56;;;;;;;81.35;29.83;;;;;;;2.45;100.00;100720.72;5044890;28;20131;-69
2022/12/05 05:38:22;;;;;;;88.95;32.17;;;;;;;2.44;100.00;100721.78;5060196;28;20036;-69
2022/12/05 05:40:47;;;;;;;83.38;31.00;;;;;;;2.43;100.00;100720.13;5060448;28;20032;-69
2022/12/05 05:43:13;;;;;;;80.60;30.25;;;;;;;2.46;100.00;100724.28;5059735;28;20097;-69
2022/12/05 05:45:38;;;;;;;93.15;33.75;;;;;;;2.44;100.00;100716.28;5077337;28;20033;-69
2022/12/05 05:48:04;;;;;;;90.53;34.08;;;;;;;2.42;100.00;100712.13;5059810;28;20024;-69
2022/12/05 05:50:30;;;;;;;83.00;31.40;;;;;;;2.42;100.00;100717.59;5040570;28;20096;-69
2022/12/05 05:52:55;;;;;;;87.53;32.13;;;;;;;2.41;100.00;100711.28;5073180;28;20108;-69
2022/12/05 05:55:20;;;;;;;90.72;32.53;;;;;;;2.38;100.00;100716.41;5060290;28;20036;-69
2022/12/05 05:57:46;;;;;;;84.82;31.40;;;;;;;2.42;100.00;100717.59;5054698;28;20028;-69
2022/12/05 06:00:12;;;;;;;88.00;31.13;;;;;;;2.43;100.00;100719.28;5056933;28;20028;-69
2022/12/05 06:02:38;;;;;;;87.78;31.88;;;;;;;2.42;100.00;100723.94;5056601;28;20032;-69
2022/12/05 06:05:04;;;;;;;76.25;29.65;;;;;;;2.42;100.00;100734.91;5040440;28;20107;-69
2022/12/05 06:07:29;;;;;;;92.55;33.35;;;;;;;2.42;100.00;100726.69;5076632;28;20395;-69
2022/12/05 06:09:55;;;;;;;101.50;33.70;;;;;;;2.39;100.00;100735.34;5057010;28;20032;-69
2022/12/05 06:12:20;;;;;;;98.60;33.90;;;;;;;2.39;100.00;100737.25;5055844;28;20032;-69
2022/12/05 06:14:47;;;;;;;92.30;33.03;;;;;;;2.40;100.00;100745.25;5019866;28;20033;-69
2022/12/05 06:17:13;;;;;;;90.13;32.13;;;;;;;2.40;100.00;100742.53;5027889;28;20091;-69
2022/12/05 06:19:38;;;;;;;89.35;31.77;;;;;;;2.41;100.00;100748.81;5060746;28;20587;-70
2022/12/05 06:22:03;;;;;;;85.00;31.27;;;;;;;2.41;100.00;100738.69;5077098;28;20050;-69
2022/12/05 06:24:29;;;;;;;99.30;35.30;;;;;;;2.41;100.00;100738.69;5060410;28;20024;-69
2022/12/05 06:26:54;;;;;;;92.07;33.72;;;;;;;2.41;100.00;100743.34;5059853;28;20468;-69
2022/12/05 06:29:20;;;;;;;91.90;33.67;;;;;;;2.40;100.00;100745.25;5055298;28;20028;-69
2022/12/05 06:31:45;;;;;;;86.15;32.25;;;;;;;2.41;100.00;100746.91;5092221;28;20073;-69
2022/12/05 06:34:11;;;;;;;100.65;34.05;;;;;;;2.40;100.00;100744.44;5085255;28;20495;-70
2022/12/05 06:36:37;;;;;;;90.57;32.65;;;;;;;2.40;100.00;100747.16;5064659;28;20029;-68
2022/12/05 06:39:02;;;;;;;89.70;33.92;;;;;;;2.40;100.00;100752.66;5063400;28;20039;-69
2022/12/05 06:41:28;;;;;;;90.28;32.90;;;;;;;2.40;100.00;100758.97;5079716;28;20115;-69
2022/12/05 06:43:54;;;;;;;100.25;34.80;;;;;;;2.37;100.00;100764.09;5060195;28;20570;-69
2022/12/05 06:46:20;;;;;;;100.55;35.05;;;;;;;2.35;100.00;100775.28;5057542;28;20055;-70
2022/12/05 06:48:45;;;;;;;93.65;32.10;;;;;;;2.38;100.00;100779.44;5060193;28;20028;-69
2022/12/05 06:51:12;;;;;;;102.07;36.40;;;;;;;2.36;100.00;100784.31;5042170;28;20032;-69
2022/12/05 06:53:37;;;;;;;89.57;32.25;;;;;;;2.38;100.00;100787.69;5063322;28;20036;-69
2022/12/05 06:56:06;;;;;;;94.75;33.08;;;;;;;2.37;100.00;100780.53;5079498;28;20075;-69
2022/12/05 06:58:31;;;;;;;102.60;35.38;;;;;;;2.37;100.00;100784.09;5046241;28;20032;-69
2022/12/05 07:03:42;;;;;;;99.97;35.83;;;;;;;2.34;100.00;100772.75;5062357;28;20039;-69
2022/12/05 07:06:08;;;;;;;103.18;34.17;;;;;;;2.33;100.00;100774.66;5079227;28;20031;-70
2022/12/05 07:08:34;;;;;;;100.88;35.40;;;;;;;2.34;100.00;100786.47;5076504;28;20029;-69
2022/12/05 07:10:59;;;;;;;107.82;37.25;;;;;;;2.33;100.00;100788.38;5078773;28;20084;-69
2022/12/05 07:13:24;;;;;;;91.25;32.75;;;;;;;2.33;100.00;100782.88;5062891;28;20031;-69
2022/12/05 07:15:50;;;;;;;85.97;31.35;;;;;;;2.35;100.00;100794.47;5032927;28;20040;-68
2022/12/05 07:18:16;;;;;;;89.13;32.75;;;;;;;2.36;100.00;100796.13;5059621;28;20532;-69
2022/12/05 07:20:42;;;;;;;86.53;30.90;;;;;;;2.39;100.00;100800.31;5045000;28;20071;-69
2022/12/05 07:23:07;;;;;;;85.47;31.92;;;;;;;2.37;100.00;100808.78;5035533;28;20774;-69
2022/12/05 07:25:33;;;;;;;83.68;30.88;;;;;;;2.38;100.00;100804.97;5054596;28;20017;-70
2022/12/05 07:27:58;;;;;;;85.50;31.80;;;;;;;2.39;100.00;100809.34;5070831;28;20028;-70
2022/12/05 07:30:23;;;;;;;85.45;30.60;;;;;;;2.40;100.00;100819.28;5046679;28;20465;-68
2022/12/05 07:32:49;;;;;;;81.32;30.67;;;;;;;2.40;100.00;100811.03;5059344;28;20032;-69
2022/12/05 07:35:15;;;;;;;80.32;30.52;;;;;;;2.41;100.00;100809.13;5075908;28;20048;-69
2022/12/05 07:37:40;;;;;;;87.97;32.00;;;;;;;2.40;100.00;100811.03;5075754;28;20091;-69
2022/12/05 07:40:06;;;;;;;92.78;33.20;;;;;;;2.38;100.00;100807.69;5059550;28;20476;-69
2022/12/05 07:42:31;;;;;;;98.82;33.85;;;;;;;2.39;100.00;100814.84;5078597;28;20484;-69
2022/12/05 07:44:57;;;;;;;87.88;32.33;;;;;;;2.40;100.00;100813.78;5045636;28;20028;-69
2022/12/05 07:47:22;;;;;;;93.20;34.25;;;;;;;2.41;100.00;100817.38;5058848;28;20031;-69
2022/12/05 07:49:48;;;;;;;94.70;34.10;;;;;;;2.38;100.00;100820.56;5072751;28;20039;-69
2022/12/05 07:52:14;;;;;;;93.05;32.70;;;;;;;2.37;100.00;100825.22;5042096;28;20024;-69
2022/12/05 07:54:39;;;;;;;87.03;31.50;;;;;;;2.39;100.00;100831.28;5055020;28;20370;-69
2022/12/05 07:57:05;;;;;;;86.38;31.48;;;;;;;2.37;100.00;100829.88;5051790;28;20040;-69
2022/12/05 07:59:30;;;;;;;86.72;31.98;;;;;;;2.38;100.00;100842.50;5078489;28;20039;-69
2022/12/05 08:01:56;;;;;;;82.50;30.67;;;;;;;2.40;100.00;100837.63;5078740;28;20473;-69
2022/12/05 08:04:21;;;;;;;81.50;31.75;;;;;;;2.39;100.00;100852.38;5078391;28;20031;-69
2022/12/05 08:06:47;;;;;;;83.43;31.95;;;;;;;2.40;100.00;100852.16;5061949;28;20035;-68
2022/12/05 08:09:12;;;;;;;81.53;31.02;;;;;;;2.39;100.00;100855.97;5061605;28;20198;-69
2022/12/05 08:11:38;;;;;;;81.05;31.25;;;;;;;2.41;100.00;100856.56;5075047;28;20476;-69
2022/12/05 08:14:04;;;;;;;80.65;29.83;;;;;;;2.41;100.00;100864.78;5072913;28;20032;-69
2022/12/05 08:16:29;;;;;;;78.72;29.05;;;;;;;2.40;100.00;100857.66;5036771;28;20052;-69
2022/12/05 08:18:59;;;;;;;82.65;29.73;;;;;;;2.41;100.00;100864.78;5077397;28;20615;-69
2022/12/05 08:21:25;;;;;;;86.32;31.75;;;;;;;2.42;100.00;100871.97;5055170;28;20028;-69
2022/12/05 08:23:50;;;;;;;78.90;29.83;;;;;;;2.43;100.00;100870.06;5061475;28;20035;-69
2022/12/05 08:26:23;;;;;;;80.88;30.27;;;;;;;2.45;100.00;100881.59;5077684;28;20052;-69
2022/12/05 08:28:56;;;;;;;82.47;29.40;;;;;;;2.46;100.00;100884.13;5058166;28;20043;-69
2022/12/05 08:31:23;;;;;;;83.70;31.45;;;;;;;2.47;100.00;100884.97;5048342;28;20119;-69
2022/12/05 08:33:48;;;;;;;77.97;30.13;;;;;;;2.49;100.00;100887.50;5077621;28;20043;-69
2022/12/05 08:36:14;;;;;;;79.68;30.38;;;;;;;2.49;100.00;100876.53;5046106;28;20029;-69
2022/12/05 08:38:40;;;;;;;88.30;31.80;;;;;;;2.49;100.00;100890.22;5026558;28;20021;-69
2022/12/05 08:41:07;;;;;;;90.68;33.33;;;;;;;2.52;100.00;100898.00;5085556;28;20036;-69
2022/12/05 08:43:33;;;;;;;93.93;33.88;;;;;;;2.52;100.00;100887.03;5047069;28;20028;-69
2022/12/05 08:45:58;;;;;;;85.25;31.15;;;;;;;2.53;100.00;100894.16;5029123;28;20029;-69
2022/12/05 08:48:25;;;;;;;100.50;35.35;;;;;;;2.53;100.00;100905.97;5045305;28;20073;-69
2022/12/05 08:50:50;;;;;;;87.40;31.75;;;;;;;2.54;100.00;100893.94;5036986;28;20040;-69
2022/12/05 08:53:16;;;;;;;88.28;33.25;;;;;;;2.55;100.00;100892.03;5071620;28;20033;-69
2022/12/05 08:55:41;;;;;;;96.53;34.25;;;;;;;2.57;100.00;100900.88;5046200;28;20429;-69
2022/12/05 08:58:07;;;;;;;82.22;30.85;;;;;;;2.58;100.00;100903.38;5051941;28;20626;-69
2022/12/05 09:00:32;;;;;;;91.07;33.20;;;;;;;2.60;100.00;100895.75;5064987;28;20028;-69
2022/12/05 09:02:58;;;;;;;86.80;32.45;;;;;;;2.62;100.00;100907.34;5067957;28;20040;-69
2022/12/05 09:05:23;;;;;;;90.43;32.30;;;;;;;2.62;100.00;100907.34;5054070;28;20024;-69
2022/12/05 09:07:49;;;;;;;92.82;33.42;;;;;;;2.65;100.00;100903.31;5043887;28;20024;-69
2022/12/05 09:10:15;;;;;;;89.00;33.05;;;;;;;2.68;100.00;100902.84;5061936;28;20032;-69
2022/12/05 09:12:40;;;;;;;90.47;33.00;;;;;;;2.69;100.00;100899.00;5049807;28;20043;-69
2022/12/05 09:15:06;;;;;;;90.65;32.33;;;;;;;2.71;100.00;100901.53;5039485;28;20469;-69
2022/12/05 09:17:32;;;;;;;94.45;31.50;;;;;;;2.72;100.00;100904.03;5036187;28;20035;-69
2022/12/05 09:19:57;;;;;;;96.45;33.25;;;;;;;2.74;100.00;100907.38;5057314;28;20028;-69
2022/12/05 09:22:23;;;;;;;92.70;33.20;;;;;;;2.75;100.00;100914.53;5050612;28;20032;-69
2022/12/05 09:24:48;;;;;;;89.55;33.45;;;;;;;2.77;100.00;100912.41;5051075;28;20040;-69
2022/12/05 09:27:14;;;;;;;106.28;36.55;;;;;;;2.78;100.00;100905.84;5024363;28;20389;-69
2022/12/05 09:29:40;;;;;;;98.30;35.10;;;;;;;2.81;100.00;100912.75;5031376;28;20029;-69
2022/12/05 09:32:05;;;;;;;98.10;33.90;;;;;;;2.83;100.00;100916.94;5034745;28;20025;-69
2022/12/05 09:34:31;;;;;;;96.63;35.00;;;;;;;2.84;100.00;100917.78;5025169;28;20072;-69
2022/12/05 09:36:56;;;;;;;105.38;34.88;;;;;;;2.88;100.00;100924.50;5020683;28;20036;-69
2022/12/05 09:39:22;;;;;;;99.75;36.42;;;;;;;2.90;100.00;100916.88;5031734;28;20031;-69
2022/12/05 09:42:09;;;;;;;111.22;36.00;;;;;;;2.93;100.00;100918.31;5051370;28;20513;-69
2022/12/05 09:45:01;;;;;;;95.53;32.78;;;;;;;2.94;100.00;100919.97;5074970;28;20036;-69
2022/12/05 09:47:27;;;;;;;101.57;36.75;;;;;;;2.97;100.00;100922.25;5054044;28;20107;-69
2022/12/05 09:49:54;;;;;;;92.07;34.20;;;;;;;2.99;100.00;100929.19;5050969;28;20059;-69
2022/12/05 09:52:29;;;;;;;92.57;33.50;;;;;;;3.01;100.00;100927.06;5029431;28;20029;-69
2022/12/05 09:54:54;;;;;;;95.93;35.15;;;;;;;3.03;100.00;100926.78;5058265;28;20036;-69
2022/12/05 09:57:27;;;;;;;102.80;35.75;;;;;;;3.07;100.00;100928.03;5031871;28;20037;-69
2022/12/05 09:59:53;;;;;;;98.20;35.67;;;;;;;3.09;100.00;100931.34;5028100;28;20046;-69
2022/12/05 10:02:54;;;;;;;104.25;36.95;;;;;;;3.13;100.00;100938.88;5043757;28;20029;-69
2022/12/05 10:05:47;;;;;;;103.55;36.03;;;;;;;3.14;100.00;100937.81;5044757;28;20468;-69
2022/12/05 10:08:34;;;;;;;108.70;36.55;;;;;;;3.16;100.00;100931.25;5074137;28;20041;-70
2022/12/05 10:11:07;;;;;;;95.05;35.10;;;;;;;3.20;100.00;100938.78;5074986;28;20167;-69
2022/12/05 10:13:32;;;;;;;;;;;;;;;3.21;100.00;100939.63;5041175;28;20729;-69
2022/12/05 10:16:06;;;;;;;95.82;33.00;;;;;;;3.25;100.00;100940.81;5077784;28;19912;-69
2022/12/05 10:18:39;;;;;;;95.70;34.40;;;;;;;3.27;100.00;100942.25;5045973;28;20049;-69
2022/12/05 10:21:21;;;;;;;103.50;35.80;;;;;;;3.28;100.00;100941.19;5032490;28;20087;-69
2022/12/05 10:24:09;;;;;;;104.32;36.97;;;;;;;3.31;100.00;100940.72;5040340;28;20043;-69
2022/12/05 10:26:37;;;;;;;107.50;37.55;;;;;;;3.32;100.00;100944.31;5040174;28;20100;-69
2022/12/05 10:29:28;;;;;;;102.97;35.00;;;;;;;3.35;100.00;100935.59;5036008;28;20406;-69
2022/12/05 10:32:30;;;;;;;101.72;36.40;;;;;;;3.39;100.00;100935.97;5059987;28;20028;-69
2022/12/05 10:35:01;;;;;;;96.93;35.10;;;;;;;3.39;100.00;100931.31;5008059;28;20078;-69
2022/12/05 10:37:29;;;;;;;102.57;36.50;;;;;;;3.43;100.00;100931.69;5043992;28;20520;-69
2022/12/05 10:39:55;;;;;;;98.47;35.22;;;;;;;3.45;100.00;100938.59;5070973;28;20122;-69
2022/12/05 10:42:24;;;;;;;97.30;35.63;;;;;;;3.48;100.00;100935.41;5026560;28;20028;-69
2022/12/05 10:44:54;;;;;;;97.82;34.60;;;;;;;3.51;100.00;100931.31;5043177;28;20044;-69
2022/12/05 10:47:19;;;;;;;105.20;36.65;;;;;;;3.52;100.00;100928.34;5046524;28;20025;-69
2022/12/05 10:49:46;;;;;;;102.75;37.30;;;;;;;3.53;100.00;100924.50;5024181;28;20032;-69
2022/12/05 10:52:12;;;;;;;92.85;34.80;;;;;;;3.54;100.00;100928.94;5039988;28;20040;-69
2022/12/05 10:54:48;;;;;;;96.75;36.15;;;;;;;3.57;100.00;100928.47;5039734;28;20040;-69
2022/12/05 10:57:24;;;;;;;95.13;34.30;;;;;;;3.61;100.00;100926.06;5039795;28;20021;-69
2022/12/05 10:59:50;;;;;;;100.70;34.40;;;;;;;3.66;100.00;100922.63;5027068;28;20036;-69
2022/12/05 11:02:25;;;;;;;96.88;34.50;;;;;;;3.67;100.00;100922.38;5056384;28;20037;-69
2022/12/05 11:04:51;;;;;;;98.60;35.03;;;;;;;3.70;100.00;100919.13;5039720;28;20565;-69
2022/12/05 11:07:34;;;;;;;97.53;33.42;;;;;;;3.72;100.00;100919.75;5036625;28;20056;-69
2022/12/05 11:10:01;;;;;;;95.68;33.95;;;;;;;3.76;100.00;100917.34;5039526;28;20037;-69
2022/12/05 11:12:35;;;;;;;92.47;34.75;;;;;;;3.81;100.00;100912.81;5034002;28;20049;-69
2022/12/05 11:15:18;;;;;;;102.78;35.58;;;;;;;3.86;100.00;100909.34;5053313;28;21513;-69
2022/12/05 11:17:44;;;;;;;102.38;35.35;;;;;;;3.88;100.00;100914.63;5073282;28;20025;-69
2022/12/05 11:20:18;;;;;;;95.95;34.35;;;;;;;3.92;100.00;100904.81;5051334;28;20436;-69
2022/12/05 11:22:55;;;;;;;86.85;32.28;;;;;;;3.95;100.00;100909.81;5058991;28;20082;-69
2022/12/05 11:25:33;;;;;;;90.90;32.58;;;;;;;3.96;100.00;100911.50;5040378;28;20067;-69
2022/12/05 11:28:15;;;;;;;90.75;32.92;;;;;;;4.00;100.00;100904.44;5025762;28;20518;-69